Time,TemperatureF,DewpointF,PressureIn,WindDirection,WindDirectionDegrees,WindSpeedMPH,WindSpeedGustMPH,Humidity,HourlyPrecipIn,Conditions,Clouds,dailyrainin,SoftwareType,DateUTC
2013-03-05 00:00:00,29.4,22.5,30.09,North,360,0.0,0.0,75,0.00,,---,0.00,VWS V14.01,2013-03-05 05:00:00,
2013-03-05 00:05:00,29.4,22.5,30.09,North,360,0.0,0.0,75,0.00,,---,0.00,VWS V14.01,2013-03-05 05:05:00,
2013-03-05 00:20:00,29.5,22.6,30.10,North,360,0.0,0.0,75,0.00,,---,0.00,VWS V14.01,2013-03-05 05:20:00,
2013-03-05 00:30:00,29.5,22.2,30.10,North,360,0.0,0.0,74,0.00,,---,0.00,VWS V14.01,2013-03-05 05:30:00,
2013-03-05 00:35:00,29.6,22.0,30.10,North,360,0.0,0.0,73,0.00,,---,0.00,VWS V14.01,2013-03-05 05:35:00,
2013-03-05 00:50:00,30.2,21.6,30.10,North,360,0.0,0.0,70,0.00,,---,0.00,VWS V14.01,2013-03-05 05:50:00,
2013-03-05 01:00:00,30.5,21.9,30.10,North,360,0.0,0.0,70,0.00,,---,0.00,VWS V14.01,2013-03-05 06:00:00,
2013-03-05 01:05:00,30.5,22.2,30.11,North,360,0.0,0.0,71,0.00,,---,0.00,VWS V14.01,2013-03-05 06:05:00,
2013-03-05 01:20:00,30.4,22.5,30.11,North,360,0.0,0.0,72,0.00,,---,0.00,VWS V14.01,2013-03-05 06:20:00,
2013-03-05 01:30:00,30.3,22.7,30.10,North,360,0.0,0.0,73,0.00,,---,0.00,VWS V14.01,2013-03-05 06:30:00,
2013-03-05 01:35:00,30.3,22.4,30.11,North,360,0.0,0.0,72,0.00,,---,0.00,VWS V14.01,2013-03-05 06:35:00,
2013-03-05 01:50:00,31.1,22.5,30.10,North,360,0.0,1.0,70,0.00,,---,0.00,VWS V14.01,2013-03-05 06:50:00,
2013-03-05 02:00:00,31.3,22.7,30.10,North,360,0.0,1.0,70,0.00,,---,0.00,VWS V14.01,2013-03-05 07:00:00,
2013-03-05 02:05:00,31.2,22.6,30.10,North,360,0.0,0.0,70,0.00,,---,0.00,VWS V14.01,2013-03-05 07:05:00,
2013-03-05 02:20:00,30.7,22.4,30.10,North,360,0.0,0.0,71,0.00,,---,0.00,VWS V14.01,2013-03-05 07:20:00,
2013-03-05 02:30:00,30.3,22.7,30.10,North,360,0.0,0.0,73,0.00,,---,0.00,VWS V14.01,2013-03-05 07:30:00,
2013-03-05 02:35:00,30.2,22.9,30.10,North,360,0.0,0.0,74,0.00,,---,0.00,VWS V14.01,2013-03-05 07:35:00,
2013-03-05 02:50:00,29.9,23.3,30.10,North,360,0.0,0.0,76,0.00,,---,0.00,VWS V14.01,2013-03-05 07:50:00,
2013-03-05 03:00:00,29.9,23.0,30.11,North,360,0.0,0.0,75,0.00,,---,0.00,VWS V14.01,2013-03-05 08:00:00,
2013-03-05 03:05:00,29.9,23.3,30.11,North,360,0.0,0.0,76,0.00,,---,0.00,VWS V14.01,2013-03-05 08:05:00,
2013-03-05 03:20:00,30.0,23.4,30.11,North,360,0.0,0.0,76,0.00,,---,0.00,VWS V14.01,2013-03-05 08:20:00,
2013-03-05 03:30:00,29.9,23.3,30.11,North,360,0.0,0.0,76,0.00,,---,0.00,VWS V14.01,2013-03-05 08:30:00,
2013-03-05 03:35:00,29.9,23.6,30.11,North,360,0.0,0.0,77,0.00,,---,0.00,VWS V14.01,2013-03-05 08:35:00,
2013-03-05 03:50:00,30.1,23.8,30.11,North,360,0.0,0.0,77,0.00,,---,0.00,VWS V14.01,2013-03-05 08:50:00,
2013-03-05 04:00:00,30.2,23.6,30.12,North,360,0.0,0.0,76,0.00,,---,0.00,VWS V14.01,2013-03-05 09:00:00,
2013-03-05 04:05:00,30.3,23.7,30.12,North,360,0.0,0.0,76,0.00,,---,0.00,VWS V14.01,2013-03-05 09:05:00,
2013-03-05 04:20:00,30.8,23.5,30.13,North,360,0.0,0.0,74,0.00,,---,0.00,VWS V14.01,2013-03-05 09:20:00,
2013-03-05 04:30:00,31.0,23.4,30.13,North,360,0.0,0.0,73,0.00,,---,0.00,VWS V14.01,2013-03-05 09:30:00,
2013-03-05 04:35:00,31.1,23.5,30.13,North,360,0.0,0.0,73,0.00,,---,0.00,VWS V14.01,2013-03-05 09:35:00,
2013-03-05 04:50:00,31.0,23.7,30.13,North,360,0.0,0.0,74,0.00,,---,0.00,VWS V14.01,2013-03-05 09:50:00,
2013-03-05 05:00:00,30.7,23.4,30.13,North,360,0.0,0.0,74,0.00,,---,0.00,VWS V14.01,2013-03-05 10:00:00,
2013-03-05 05:05:00,30.6,23.0,30.13,North,360,0.0,0.0,73,0.00,,---,0.00,VWS V14.01,2013-03-05 10:05:00,
2013-03-05 05:20:00,30.3,23.3,30.13,North,360,0.0,0.0,75,0.00,,---,0.00,VWS V14.01,2013-03-05 10:20:00,
2013-03-05 05:30:00,30.0,23.4,30.13,North,360,0.0,0.0,76,0.00,,---,0.00,VWS V14.01,2013-03-05 10:30:00,
2013-03-05 05:35:00,29.9,23.0,30.12,North,360,0.0,0.0,75,0.00,,---,0.00,VWS V14.01,2013-03-05 10:35:00,
2013-03-05 05:50:00,29.4,22.8,30.13,North,360,0.0,0.0,76,0.00,,---,0.00,VWS V14.01,2013-03-05 10:50:00,
2013-03-05 06:00:00,29.0,22.7,30.13,North,360,0.0,0.0,77,0.00,,---,0.00,VWS V14.01,2013-03-05 11:00:00,
2013-03-05 06:05:00,28.9,22.9,30.13,North,360,0.0,0.0,78,0.00,,---,0.00,VWS V14.01,2013-03-05 11:05:00,
2013-03-05 06:20:00,29.2,23.5,30.13,North,360,0.0,0.0,79,0.00,,---,0.00,VWS V14.01,2013-03-05 11:20:00,
2013-03-05 06:30:00,29.2,23.2,30.13,North,360,0.0,0.0,78,0.00,,---,0.00,VWS V14.01,2013-03-05 11:30:00,
2013-03-05 06:35:00,29.3,23.3,30.13,North,360,0.0,0.0,78,0.00,,---,0.00,VWS V14.01,2013-03-05 11:35:00,
2013-03-05 06:50:00,29.5,23.5,30.14,North,360,0.0,0.0,78,0.00,,---,0.00,VWS V14.01,2013-03-05 11:50:00,
2013-03-05 07:00:00,29.6,23.6,30.14,North,360,0.0,0.0,78,0.00,,---,0.00,VWS V14.01,2013-03-05 12:00:00,
2013-03-05 07:05:00,29.8,23.8,30.13,North,360,0.0,0.0,78,0.00,,---,0.00,VWS V14.01,2013-03-05 12:05:00,
2013-03-05 07:21:00,31.0,24.3,30.13,North,11,0.0,2.0,76,0.00,,---,0.00,VWS V14.01,2013-03-05 12:21:00,
2013-03-05 07:30:00,32.9,24.5,30.13,NW,309,0.0,2.0,71,0.00,,---,0.00,VWS V14.01,2013-03-05 12:30:00,
2013-03-05 07:36:00,34.1,24.7,30.13,ENE,66,1.0,2.0,68,0.00,,---,0.00,VWS V14.01,2013-03-05 12:36:00,
2013-03-05 07:51:00,36.0,25.0,30.14,North,11,2.0,3.0,64,0.00,,---,0.00,VWS V14.01,2013-03-05 12:51:00,
2013-03-05 08:00:00,36.8,25.0,30.13,West,276,0.0,4.0,62,0.00,,---,0.00,VWS V14.01,2013-03-05 13:00:00,
2013-03-05 08:06:00,37.2,25.0,30.14,North,10,0.0,4.0,61,0.00,,---,0.00,VWS V14.01,2013-03-05 13:06:00,
2013-03-05 08:21:00,38.4,24.9,30.14,NNE,24,0.0,5.0,58,0.00,,---,0.00,VWS V14.01,2013-03-05 13:21:00,
2013-03-05 08:30:00,39.0,25.1,30.14,NE,53,0.0,5.0,57,0.00,,---,0.00,VWS V14.01,2013-03-05 13:30:00,
2013-03-05 08:36:00,39.4,25.5,30.13,NE,56,3.0,3.0,57,0.00,,---,0.00,VWS V14.01,2013-03-05 13:36:00,
2013-03-05 08:51:00,40.1,25.7,30.13,NE,52,0.0,5.0,56,0.00,,---,0.00,VWS V14.01,2013-03-05 13:51:00,
2013-03-05 09:00:00,40.6,26.1,30.13,WSW,246,1.0,5.0,56,0.00,,---,0.00,VWS V14.01,2013-03-05 14:00:00,
2013-03-05 09:06:00,41.2,25.8,30.14,West,274,0.0,3.0,54,0.00,,---,0.00,VWS V14.01,2013-03-05 14:06:00,
2013-03-05 09:21:00,41.4,25.6,30.14,NE,53,1.0,7.0,53,0.00,,---,0.00,VWS V14.01,2013-03-05 14:21:00,
2013-03-05 09:30:00,41.9,26.0,30.13,NNW,340,0.0,7.0,53,0.00,,---,0.00,VWS V14.01,2013-03-05 14:30:00,
2013-03-05 09:36:00,42.2,26.8,30.13,East,79,1.0,3.0,54,0.00,,---,0.00,VWS V14.01,2013-03-05 14:36:00,
2013-03-05 09:51:00,42.5,26.1,30.12,North,5,1.0,7.0,52,0.00,,---,0.00,VWS V14.01,2013-03-05 14:51:00,
2013-03-05 10:00:00,42.9,26.5,30.12,WNW,288,1.0,7.0,52,0.00,,---,0.00,VWS V14.01,2013-03-05 15:00:00,
2013-03-05 10:06:00,43.3,26.4,30.12,NNE,30,3.0,4.0,51,0.00,,---,0.00,VWS V14.01,2013-03-05 15:06:00,
2013-03-05 10:21:00,44.0,26.6,30.11,North,9,1.0,5.0,50,0.00,,---,0.00,VWS V14.01,2013-03-05 15:21:00,
2013-03-05 10:30:00,44.6,25.6,30.11,ENE,69,4.0,5.0,47,0.00,,---,0.00,VWS V14.01,2013-03-05 15:30:00,
2013-03-05 10:36:00,44.6,26.6,30.10,West,264,0.0,4.0,49,0.00,,---,0.00,VWS V14.01,2013-03-05 15:36:00,
2013-03-05 10:51:00,45.4,25.9,30.10,ENE,59,0.0,5.0,46,0.00,,---,0.00,VWS V14.01,2013-03-05 15:51:00,
2013-03-05 11:00:00,46.0,26.4,30.09,North,360,2.0,5.0,46,0.00,,---,0.00,VWS V14.01,2013-03-05 16:00:00,
2013-03-05 11:06:00,46.4,26.2,30.08,WSW,246,2.0,2.0,45,0.00,,---,0.00,VWS V14.01,2013-03-05 16:06:00,
2013-03-05 11:21:00,47.0,26.2,30.09,NE,44,1.0,4.0,44,0.00,,---,0.00,VWS V14.01,2013-03-05 16:21:00,
2013-03-05 11:30:00,47.5,25.0,30.09,ENE,58,0.0,4.0,41,0.00,,---,0.00,VWS V14.01,2013-03-05 16:30:00,
2013-03-05 11:36:00,47.4,26.0,30.09,NE,39,0.0,5.0,43,0.00,,---,0.00,VWS V14.01,2013-03-05 16:36:00,
2013-03-05 11:51:00,47.7,26.3,30.09,East,82,2.0,5.0,43,0.00,,---,0.00,VWS V14.01,2013-03-05 16:51:00,
2013-03-05 12:00:00,48.5,27.0,30.08,ENE,59,1.0,5.0,43,0.00,,---,0.00,VWS V14.01,2013-03-05 17:00:00,
2013-03-05 12:06:00,49.2,26.5,30.08,ENE,57,0.0,4.0,41,0.00,,---,0.00,VWS V14.01,2013-03-05 17:06:00,
2013-03-05 12:21:00,49.2,25.9,30.07,ESE,110,0.0,7.0,40,0.00,,---,0.00,VWS V14.01,2013-03-05 17:21:00,
2013-03-05 12:30:00,49.4,24.9,30.06,NE,40,3.0,9.0,38,0.00,,---,0.00,VWS V14.01,2013-03-05 17:30:00,
2013-03-05 12:36:00,49.5,26.2,30.06,SSW,211,0.0,4.0,40,0.00,,---,0.00,VWS V14.01,2013-03-05 17:36:00,
2013-03-05 12:51:00,50.4,26.4,30.05,NE,56,2.0,5.0,39,0.00,,---,0.00,VWS V14.01,2013-03-05 17:51:00,
2013-03-05 13:00:00,50.5,25.2,30.04,ENE,76,1.0,5.0,37,0.00,,---,0.00,VWS V14.01,2013-03-05 18:00:00,
2013-03-05 13:06:00,50.1,24.9,30.04,NE,40,1.0,5.0,37,0.00,,---,0.00,VWS V14.01,2013-03-05 18:06:00,
2013-03-05 13:21:00,51.2,25.2,30.03,ESE,109,1.0,5.0,36,0.00,,---,0.00,VWS V14.01,2013-03-05 18:21:00,
2013-03-05 13:30:00,51.1,24.4,30.03,SE,129,0.0,5.0,35,0.00,,---,0.00,VWS V14.01,2013-03-05 18:30:00,
2013-03-05 13:36:00,50.7,23.4,30.03,NNW,346,0.0,5.0,34,0.00,,---,0.00,VWS V14.01,2013-03-05 18:36:00,
2013-03-05 13:51:00,50.9,23.5,30.02,NE,55,0.0,5.0,34,0.00,,---,0.00,VWS V14.01,2013-03-05 18:51:00,
2013-03-05 14:00:00,51.0,24.3,30.01,SE,125,0.0,5.0,35,0.00,,---,0.00,VWS V14.01,2013-03-05 19:00:00,
2013-03-05 14:06:00,51.0,24.3,30.01,NE,43,0.0,3.0,35,0.00,,---,0.00,VWS V14.01,2013-03-05 19:06:00,
2013-03-05 14:21:00,51.7,25.0,30.01,SE,142,0.0,3.0,35,0.00,,---,0.00,VWS V14.01,2013-03-05 19:21:00,
2013-03-05 14:30:00,52.2,24.0,30.00,East,79,0.0,5.0,33,0.00,,---,0.00,VWS V14.01,2013-03-05 19:30:00,
2013-03-05 14:36:00,51.9,23.0,30.00,NNW,346,2.0,3.0,32,0.00,,---,0.00,VWS V14.01,2013-03-05 19:36:00,
2013-03-05 14:51:00,52.3,23.3,29.99,ESE,119,3.0,5.0,32,0.00,,---,0.00,VWS V14.01,2013-03-05 19:51:00,
2013-03-05 15:00:00,52.3,23.3,29.99,ENE,65,0.0,5.0,32,0.00,,---,0.00,VWS V14.01,2013-03-05 20:00:00,
2013-03-05 15:06:00,52.5,24.2,29.98,ESE,119,0.0,7.0,33,0.00,,---,0.00,VWS V14.01,2013-03-05 20:06:00,
2013-03-05 15:21:00,52.4,21.9,29.98,ENE,76,0.0,7.0,30,0.00,,---,0.00,VWS V14.01,2013-03-05 20:21:00,
2013-03-05 15:30:00,53.0,21.6,29.97,SSE,150,0.0,7.0,29,0.00,,---,0.00,VWS V14.01,2013-03-05 20:30:00,
2013-03-05 15:36:00,53.1,22.5,29.98,NE,43,0.0,3.0,30,0.00,,---,0.00,VWS V14.01,2013-03-05 20:36:00,
2013-03-05 15:51:00,53.5,22.0,29.98,West,260,0.0,3.0,29,0.00,,---,0.00,VWS V14.01,2013-03-05 20:51:00,
2013-03-05 16:00:00,52.7,26.5,29.98,SE,125,2.0,3.0,36,0.00,,---,0.00,VWS V14.01,2013-03-05 21:00:00,
2013-03-05 16:06:00,51.9,25.1,29.98,ESE,107,0.0,2.0,35,0.00,,---,0.00,VWS V14.01,2013-03-05 21:06:00,
2013-03-05 16:21:00,50.8,28.0,29.99,SE,130,0.0,6.0,41,0.00,,---,0.00,VWS V14.01,2013-03-05 21:21:00,
2013-03-05 16:30:00,50.0,29.0,29.98,South,171,0.0,6.0,44,0.00,,---,0.00,VWS V14.01,2013-03-05 21:30:00,
2013-03-05 16:36:00,49.7,28.1,29.99,SSE,161,0.0,6.0,43,0.00,,---,0.00,VWS V14.01,2013-03-05 21:36:00,
2013-03-05 16:51:00,49.1,28.1,29.99,East,97,2.0,6.0,44,0.00,,---,0.00,VWS V14.01,2013-03-05 21:51:00,
2013-03-05 17:00:00,48.5,27.6,29.99,East,94,1.0,6.0,44,0.00,,---,0.00,VWS V14.01,2013-03-05 22:00:00,
2013-03-05 17:06:00,48.1,27.2,29.99,ESE,102,0.0,2.0,44,0.00,,---,0.00,VWS V14.01,2013-03-05 22:06:00,
2013-03-05 17:21:00,47.5,27.8,29.99,WSW,255,2.0,4.0,46,0.00,,---,0.00,VWS V14.01,2013-03-05 22:21:00,
2013-03-05 17:30:00,47.1,28.4,29.99,WSW,241,0.0,4.0,48,0.00,,---,0.00,VWS V14.01,2013-03-05 22:30:00,
2013-03-05 17:36:00,46.6,28.0,30.00,ESE,113,0.0,5.0,48,0.00,,---,0.00,VWS V14.01,2013-03-05 22:36:00,
2013-03-05 17:51:00,45.6,27.6,30.00,ESE,120,0.0,5.0,49,0.00,,---,0.00,VWS V14.01,2013-03-05 22:51:00,
2013-03-05 18:00:00,45.2,27.7,30.00,SSE,163,0.0,5.0,50,0.00,,---,0.00,VWS V14.01,2013-03-05 23:00:00,
2013-03-05 18:06:00,45.0,27.5,30.00,SSE,167,1.0,3.0,50,0.00,,---,0.00,VWS V14.01,2013-03-05 23:06:00,
2013-03-05 18:21:00,44.5,27.5,30.00,ESE,117,0.0,3.0,51,0.00,,---,0.00,VWS V14.01,2013-03-05 23:21:00,
2013-03-05 18:30:00,44.2,27.2,29.99,SE,133,0.0,3.0,51,0.00,,---,0.00,VWS V14.01,2013-03-05 23:30:00,
2013-03-05 18:36:00,44.2,27.2,29.99,ESE,108,1.0,3.0,51,0.00,,---,0.00,VWS V14.01,2013-03-05 23:36:00,
2013-03-05 18:51:00,43.8,26.9,29.99,ESE,114,0.0,3.0,51,0.00,,---,0.00,VWS V14.01,2013-03-05 23:51:00,
2013-03-05 19:00:00,43.7,26.8,29.98,ESE,119,1.0,3.0,51,0.00,,---,0.00,VWS V14.01,2013-03-06 00:00:00,
2013-03-05 19:06:00,43.6,26.2,29.98,East,84,0.0,2.0,50,0.00,,---,0.00,VWS V14.01,2013-03-06 00:06:00,
2013-03-05 19:21:00,43.6,26.2,29.98,SSE,150,1.0,3.0,50,0.00,,---,0.00,VWS V14.01,2013-03-06 00:21:00,
2013-03-05 19:30:00,43.5,26.1,29.98,ESE,114,0.0,3.0,50,0.00,,---,0.00,VWS V14.01,2013-03-06 00:30:00,
2013-03-05 19:36:00,43.4,26.0,29.97,SE,142,0.0,2.0,50,0.00,,---,0.00,VWS V14.01,2013-03-06 00:36:00,
2013-03-05 19:52:00,43.3,25.9,29.97,SE,142,0.0,4.0,50,0.00,,---,0.00,VWS V14.01,2013-03-06 00:52:00,
2013-03-05 20:00:00,43.1,26.2,29.97,South,182,0.0,4.0,51,0.00,,---,0.00,VWS V14.01,2013-03-06 01:00:00,
2013-03-05 20:07:00,43.1,26.2,29.97,SSE,153,0.0,1.0,51,0.00,,---,0.00,VWS V14.01,2013-03-06 01:07:00,
2013-03-05 20:22:00,43.1,26.2,29.96,ESE,106,0.0,2.0,51,0.00,,---,0.00,VWS V14.01,2013-03-06 01:22:00,
2013-03-05 20:30:00,43.1,26.2,29.96,South,173,1.0,2.0,51,0.00,,---,0.00,VWS V14.01,2013-03-06 01:30:00,
2013-03-05 20:37:00,43.1,26.2,29.96,SSE,155,0.0,1.0,51,0.00,,---,0.00,VWS V14.01,2013-03-06 01:37:00,
2013-03-05 20:52:00,43.1,26.2,29.95,ENE,60,0.0,3.0,51,0.00,,---,0.00,VWS V14.01,2013-03-06 01:52:00,
2013-03-05 21:00:00,43.0,26.1,29.94,ENE,60,0.0,3.0,51,0.00,,---,0.00,VWS V14.01,2013-03-06 02:00:00,
2013-03-05 21:07:00,42.9,26.0,29.94,SE,131,0.0,0.0,51,0.00,,---,0.00,VWS V14.01,2013-03-06 02:07:00,
2013-03-05 21:22:00,42.9,26.0,29.93,East,84,0.0,1.0,51,0.00,,---,0.00,VWS V14.01,2013-03-06 02:22:00,
2013-03-05 21:30:00,42.8,25.9,29.92,ESE,107,0.0,2.0,51,0.00,,---,0.00,VWS V14.01,2013-03-06 02:30:00,
2013-03-05 21:37:00,42.7,25.9,29.92,NNE,18,0.0,3.0,51,0.00,,---,0.00,VWS V14.01,2013-03-06 02:37:00,
2013-03-05 21:52:00,42.4,27.0,29.92,East,84,0.0,4.0,54,0.00,,---,0.00,VWS V14.01,2013-03-06 02:52:00,
2013-03-05 22:00:00,42.2,28.5,29.92,East,82,1.0,4.0,58,0.00,,---,0.00,VWS V14.01,2013-03-06 03:00:00,
2013-03-05 22:07:00,42.0,29.5,29.92,ESE,121,1.0,4.0,61,0.00,,---,0.00,VWS V14.01,2013-03-06 03:07:00,
2013-03-05 22:22:00,41.6,31.1,29.92,SSE,149,2.0,4.0,66,0.00,,---,0.00,VWS V14.01,2013-03-06 03:22:00,
2013-03-05 22:30:00,41.3,31.9,29.92,SSE,153,1.0,5.0,69,0.00,,---,0.00,VWS V14.01,2013-03-06 03:30:00,
2013-03-05 22:37:00,41.1,32.1,29.92,NE,44,0.0,3.0,70,0.00,,---,0.00,VWS V14.01,2013-03-06 03:37:00,
2013-03-05 22:52:00,40.6,32.3,29.90,East,83,0.0,4.0,72,0.00,,---,0.00,VWS V14.01,2013-03-06 03:52:00,
2013-03-05 23:00:00,40.4,32.4,29.90,ESE,102,0.0,4.0,73,0.00,,---,0.00,VWS V14.01,2013-03-06 04:00:00,
2013-03-05 23:07:00,40.3,32.7,29.89,ESE,102,0.0,1.0,74,0.00,,---,0.00,VWS V14.01,2013-03-06 04:07:00,
2013-03-05 23:22:00,39.6,33.0,29.89,ESE,119,1.0,4.0,77,0.00,,---,0.00,VWS V14.01,2013-03-06 04:22:00,
2013-03-05 23:30:00,39.3,33.0,29.89,ENE,63,0.0,4.0,78,0.00,,---,0.00,VWS V14.01,2013-03-06 04:30:00,
2013-03-05 23:37:00,39.0,32.7,29.89,ENE,74,0.0,1.0,78,0.00,,---,0.00,VWS V14.01,2013-03-06 04:37:00,
2013-03-05 23:52:00,38.8,32.9,29.88,ENE,67,0.0,3.0,79,0.00,,---,0.00,VWS V14.01,2013-03-06 04:52:00,